Lähimmät METAR asemat

 

EFPO - Pori (mil/Civ), Finland
Distance from station: PLU 42km
Päivitetty: 14/12/2017 00:20
Vaihtelevaa
Vaihtelevaa
 Wind from EKA
Tuuli: EKA 13 km/h
Lämpötila: 1°C
Wind Chill: -3°C
Kastepiste: 0°C
Kosteus: 93%
Ilmanpaine: 992 hPa
Clouds: Vaihtelevaa
Visibility: 10 km
Cloud details: Vaihtelevaa 579 m
2017/12/13 22:20 EFPO 132220Z AUTO 15007KT 9999 OVC019/// 01/M00 Q0992
EFTU - Turku/Abo, Finland
Distance from station: E 68km
Päivitetty: 14/12/2017 00:20
Vaihtelevaa
Vaihtelevaa
 Wind from LO
Tuuli: LO 15 km/h
Lämpötila: 3°C
Wind Chill: -1°C
Kastepiste: 0°C
Kosteus: 81%
Ilmanpaine: 994 hPa
Clouds: Vaihtelevaa
Visibility: 10 km
Cloud details: Puolipilvistä 701 m
Enimmäkseen pilvistä 1219 m
Vaihtelevaa 1463 m
2017/12/13 22:20 EFTU 132220Z AUTO 22008KT 180V260 9999 SCT023/// BKN040/// OVC048/// 03/M00 Q0994
 
EFTP - Tampere/Pirkkala, Finland
Distance from station: IKO 84km
Päivitetty: 14/12/2017 00:20
Vaihtelevaa
Vaihtelevaa
 Wind from ELO
Tuuli: ELO 19 km/h
Lämpötila: 1°C
Wind Chill: -4°C
Kastepiste: 0°C
Kosteus: 93%
Ilmanpaine: 994 hPa
Clouds: Vaihtelevaa
Visibility: 10 km
Cloud details: Few Clouds 244 m
Puolipilvistä 457 m
Enimmäkseen pilvistä 579 m
Vaihtelevaa 1280 m
2017/12/13 22:20 EFTP 132220Z AUTO 20010KT 9999 FEW008 SCT015 BKN019 OVC042 01/00 Q0994